Bookmark and Share
Track history (hours):
 

Wind Star

Operator: Holland America Line

Last reported at 2014-Apr-17 17:33 UTC. Time now 2014-Apr-18 21:00 UTC.
Position N 37°47' W 000°20'.

Length 135 m; draft 4.1 m.

Type: Ship. MMSI: 309163000.

NotesDate/timePositionNaut miles runAvg speedWind from/ knotsBaromVisibWave heightAir tempDewpointWater temp
2014-Apr-17 17:33N 37°47' W 000°20'1211.6
2014-Apr-17 16:30N 37°37' W 000°29'11 9.3
2014-Apr-17 15:17N 37°32' W 000°42'  
2014-Apr-15 01:31N 36°10' W 005°04'1010.7
2014-Apr-15 00:34N 36°04' W 005°13'1110.8
2014-Apr-14 23:34N 35°59' W 005°25'10 9.5
2014-Apr-14 22:34N 35°55' W 005°36'212 4.6
2014-Apr-13 00:29N 37°32' W 009°31'8 8.4
2014-Apr-12 23:33N 37°40' W 009°30'8 8.5
2014-Apr-12 22:33N 37°48' W 009°30'9 8.7
2014-Apr-12 21:30N 37°57' W 009°29'9 9.0
2014-Apr-12 20:33N 38°05' W 009°27'10 9.3
2014-Apr-12 19:32N 38°15' W 009°26'21 9.5
2014-Apr-12 17:19N 38°36' W 009°23'811.0
2014-Apr-12 16:33N 38°41' W 009°15'4 4.1
2014-Apr-12 15:33N 38°42' W 009°10'0 0.0
2014-Apr-12 14:33N 38°42' W 009°10'0 0.0
2014-Apr-12 13:33N 38°42' W 009°10'0 0.0
2014-Apr-12 12:33N 38°42' W 009°10'0 0.0
2014-Apr-12 11:33N 38°42' W 009°10'0 0.0
2014-Apr-12 10:33N 38°42' W 009°10'0 0.0
2014-Apr-12 09:33N 38°42' W 009°10'0 0.0
2014-Apr-12 08:33N 38°42' W 009°10'0 0.0
2014-Apr-12 07:33N 38°42' W 009°10'0 0.0
2014-Apr-12 06:33N 38°42' W 009°10'0 0.0
2014-Apr-12 05:33N 38°42' W 009°10'3 3.5
2014-Apr-12 04:33N 38°41' W 009°14'5 5.0
2014-Apr-12 03:33N 38°39' W 009°20'21 6.4
2014-Apr-12 00:14N 38°31' W 009°45'6 6.9
2014-Apr-11 23:21N 38°30' W 009°53'36 7.5
2014-Apr-11 18:33N 38°20' W 010°37'8 7.6
2014-Apr-11 17:26N 38°18' W 010°47'8 7.6
2014-Apr-11 16:22N 38°15' W 010°57'7 7.7
2014-Apr-11 15:28N 38°13' W 011°05'7 7.5
2014-Apr-11 14:33N 38°12' W 011°14'  

Dump ship's entire track history

sailing weather and tide predictions

Wind Star — C6CA9 — position and weather